Time;durP1;ratioP1;P1;durP2;ratioP2;P2;SDS_P1;SDS_P2;PMS_P1;PMS_P2;Temp;Humidity;BMP_temperature;BMP_pressure;BME280_temperature;BME280_humidity;BME280_pressure;Samples;Min_cycle;Max_cycle;Signal;HPM_P1;HPM_P2
2021/01/15 00:01:39;;;;;;;5.78;3.33;;;;;;;-5.93;79.45;101613.56;5065506;28;20024;-72
2021/01/15 00:04:05;;;;;;;6.07;2.58;;;;;;;-5.97;79.63;101608.25;5065537;28;20028;-71
2021/01/15 00:06:31;;;;;;;5.45;3.17;;;;;;;-6.02;79.63;101601.09;5065148;28;20367;-72
2021/01/15 00:08:58;;;;;;;6.00;3.35;;;;;;;-5.97;79.70;101615.84;5064020;28;20024;-73
2021/01/15 00:11:24;;;;;;;7.88;3.47;;;;;;;-6.07;79.63;101598.19;5065100;28;20029;-73
2021/01/15 00:13:50;;;;;;;6.43;3.08;;;;;;;-6.12;79.67;101592.78;5065320;28;20111;-72
2021/01/15 00:16:19;;;;;;;6.20;3.28;;;;;;;-6.02;79.96;101612.06;5063872;28;20021;-73
2021/01/15 00:18:45;;;;;;;6.82;3.17;;;;;;;-6.00;79.96;101608.00;5063763;28;20025;-72
2021/01/15 00:21:18;;;;;;;6.25;3.90;;;;;;;-5.99;80.21;101604.72;5080153;28;20020;-73
2021/01/15 00:23:43;;;;;;;6.10;3.40;;;;;;;-6.01;80.32;101590.19;5065161;28;20028;-74
2021/01/15 00:26:17;;;;;;;7.15;3.65;;;;;;;-5.97;80.21;101592.19;5064983;28;20021;-74
2021/01/15 00:28:43;;;;;;;7.20;3.13;;;;;;;-5.93;80.15;101588.25;5064989;28;20025;-73
2021/01/15 00:31:09;;;;;;;5.75;3.45;;;;;;;-5.87;80.13;101592.16;5064847;28;20036;-74
2021/01/15 00:33:34;;;;;;;10.40;3.22;;;;;;;-5.83;80.27;101585.66;5064738;28;20032;-74
2021/01/15 00:35:59;;;;;;;6.80;3.25;;;;;;;-5.85;80.19;101582.16;5064457;28;20024;-73
2021/01/15 00:38:25;;;;;;;6.85;2.97;;;;;;;-5.72;80.37;101587.38;5080053;28;20055;-73
2021/01/15 00:41:02;;;;;;;8.88;3.78;;;;;;;-5.69;80.12;101589.28;5080063;28;20044;-73
2021/01/15 00:43:27;;;;;;;9.82;3.72;;;;;;;-5.87;80.11;101549.16;5064719;28;20051;-73
2021/01/15 00:45:53;;;;;;;8.30;4.10;;;;;;;-5.54;80.11;101588.69;5064834;28;20116;-73
2021/01/15 00:48:18;;;;;;;7.72;3.70;;;;;;;-5.53;80.20;101591.34;5080009;28;20029;-73
2021/01/15 00:50:43;;;;;;;6.32;3.55;;;;;;;-5.60;80.11;101577.34;5064218;28;20040;-74
2021/01/15 00:53:09;;;;;;;7.43;2.97;;;;;;;-5.51;79.77;101576.28;5080006;28;20048;-73
2021/01/15 00:55:34;;;;;;;7.22;2.95;;;;;;;-5.56;79.63;101569.97;5062755;28;20041;-74
2021/01/15 00:58:01;;;;;;;4.88;2.88;;;;;;;-5.40;79.62;101593.13;5064553;28;20029;-74
2021/01/15 01:00:27;;;;;;;7.95;3.35;;;;;;;-5.44;79.67;101591.16;5062676;28;20028;-74
2021/01/15 01:02:52;;;;;;;5.65;3.42;;;;;;;-5.42;79.78;101591.28;5064269;28;20444;-73
2021/01/15 01:05:21;;;;;;;3.55;1.88;;;;;;;-5.41;79.37;101593.03;5064033;28;20028;-72
2021/01/15 01:07:47;;;;;;;5.78;3.03;;;;;;;-5.38;79.46;101595.78;5079417;28;20081;-74
2021/01/15 01:10:13;;;;;;;4.65;2.97;;;;;;;-5.35;79.44;101598.53;5062671;28;20100;-74
2021/01/15 01:12:43;;;;;;;6.63;2.97;;;;;;;-5.41;79.27;101581.25;5064116;28;20032;-72
2021/01/15 01:15:10;;;;;;;6.15;3.08;;;;;;;-5.35;79.15;101590.94;5064015;28;20086;-73
2021/01/15 01:17:36;;;;;;;7.55;3.30;;;;;;;-5.30;78.85;101592.19;5063873;28;20024;-72
2021/01/15 01:20:02;;;;;;;5.68;3.10;;;;;;;-5.62;78.74;101534.94;5063825;28;20027;-73
2021/01/15 01:22:27;;;;;;;6.60;3.67;;;;;;;-5.66;78.48;101533.84;5063521;28;20032;-73
2021/01/15 01:24:52;;;;;;;6.57;3.05;;;;;;;-5.32;79.12;101591.22;5063929;28;20025;-72
2021/01/15 01:27:18;;;;;;;5.82;2.85;;;;;;;-5.55;79.13;101557.44;5063925;28;20056;-73
2021/01/15 01:29:43;;;;;;;8.55;3.95;;;;;;;-5.38;78.91;101586.56;5063635;28;20021;-73
2021/01/15 01:32:08;;;;;;;6.85;3.28;;;;;;;-5.29;79.09;101596.50;5063847;28;20021;-73
2021/01/15 01:34:34;;;;;;;5.78;2.83;;;;;;;-5.28;78.85;101597.38;5062533;28;20078;-73
2021/01/15 01:36:59;;;;;;;6.78;3.17;;;;;;;-5.27;79.05;101586.50;5078807;28;20025;-73
2021/01/15 01:39:25;;;;;;;4.57;2.92;;;;;;;-5.25;79.25;101587.47;5063701;28;20072;-74
2021/01/15 01:41:50;;;;;;;9.35;3.95;;;;;;;-5.15;79.49;101595.00;5063783;28;20028;-71
2021/01/15 01:44:15;;;;;;;6.82;3.75;;;;;;;-5.27;79.34;101569.63;5063777;28;20055;-71
2021/01/15 01:46:41;;;;;;;8.30;3.85;;;;;;;-5.36;79.33;101538.56;5063605;28;20032;-69
2021/01/15 01:49:07;;;;;;;7.38;3.33;;;;;;;-5.29;79.04;101547.50;5063382;28;20016;-69
2021/01/15 01:51:33;;;;;;;7.63;3.70;;;;;;;-5.27;79.21;101543.44;5063149;28;20062;-70
2021/01/15 01:53:59;;;;;;;6.45;3.40;;;;;;;-5.26;79.21;101555.34;5063459;28;20081;-70
2021/01/15 01:56:24;;;;;;;8.50;4.55;;;;;;;-5.17;79.27;101560.19;5061872;28;20056;-70
2021/01/15 01:58:51;;;;;;;7.63;4.13;;;;;;;-5.00;79.41;101582.59;5063481;28;20025;-70
2021/01/15 02:01:17;;;;;;;7.15;3.58;;;;;;;-5.02;79.41;101579.09;5063563;28;20024;-69
2021/01/15 02:03:42;;;;;;;7.93;3.78;;;;;;;-4.98;79.37;101577.63;5061799;28;20021;-70
2021/01/15 02:06:12;;;;;;;8.50;3.35;;;;;;;-5.04;79.38;101583.13;5063029;28;20082;-69
2021/01/15 02:08:38;;;;;;;6.60;3.97;;;;;;;-5.06;79.02;101591.41;5063157;28;20112;-70
2021/01/15 02:11:15;;;;;;;10.13;5.43;;;;;;;-5.10;79.34;101585.22;5063280;28;20044;-71
2021/01/15 02:13:51;;;;;;;6.78;4.07;;;;;;;-5.16;79.54;101580.56;5080912;28;20481;-69
2021/01/15 02:16:23;;;;;;;7.47;3.85;;;;;;;-5.17;79.46;101585.50;5082946;28;20515;-70
2021/01/15 02:18:56;;;;;;;9.23;4.32;;;;;;;-5.54;79.60;101535.56;5082604;28;20101;-68
2021/01/15 02:21:58;;;;;;;7.78;4.13;;;;;;;-5.24;79.72;101597.72;5066919;28;20053;-70
2021/01/15 02:24:43;;;;;;;9.98;4.32;;;;;;;-5.33;79.87;101589.44;5067404;28;20720;-69
2021/01/15 02:27:23;;;;;;;7.78;4.60;;;;;;;-5.38;79.81;101594.16;5067270;28;20025;-69
2021/01/15 02:30:27;;;;;;;8.35;4.85;;;;;;;-5.49;80.04;101598.41;5065665;28;20402;-70
2021/01/15 02:33:06;;;;;;;9.52;4.13;;;;;;;-5.59;79.92;101590.84;5067047;28;20534;-70
2021/01/15 02:35:46;;;;;;;9.45;5.13;;;;;;;-5.75;80.40;101582.09;5066786;28;20032;-71
2021/01/15 02:38:20;;;;;;;11.18;4.88;;;;;;;-5.73;80.51;101605.88;5067007;28;20040;-69
2021/01/15 02:41:04;;;;;;;8.45;4.47;;;;;;;-5.74;80.34;101606.66;5066963;28;20107;-70
2021/01/15 02:43:31;;;;;;;7.70;3.90;;;;;;;-5.87;80.44;101593.78;5082505;28;20504;-69
2021/01/15 02:45:59;;;;;;;12.50;4.97;;;;;;;-6.05;80.59;101571.38;5065510;28;20481;-69
2021/01/15 02:48:29;;;;;;;9.10;5.28;;;;;;;-5.97;80.89;101603.19;5067067;28;20130;-70
2021/01/15 02:50:56;;;;;;;9.55;4.22;;;;;;;-6.06;80.99;101597.44;5065061;28;20028;-68
2021/01/15 02:53:21;;;;;;;9.18;5.15;;;;;;;-6.13;81.05;101587.59;5066781;28;20024;-71
2021/01/15 02:55:46;;;;;;;9.43;4.47;;;;;;;-6.12;81.01;101596.97;5066430;28;20049;-69
2021/01/15 02:58:13;;;;;;;11.05;4.93;;;;;;;-6.14;81.24;101594.31;5066575;28;20028;-69
2021/01/15 03:00:38;;;;;;;11.43;5.30;;;;;;;-6.17;81.27;101598.25;5066582;28;20085;-70
2021/01/15 03:03:29;;;;;;;9.02;3.65;;;;;;;-6.18;81.37;101601.53;5066536;28;20056;-69
2021/01/15 03:06:04;;;;;;;10.32;5.15;;;;;;;-6.28;81.21;101595.75;5065050;28;20075;-70
2021/01/15 03:08:30;;;;;;;6.15;3.10;;;;;;;-6.57;80.92;101542.88;5066556;28;20025;-70
2021/01/15 03:11:00;;;;;;;9.80;4.57;;;;;;;-6.25;81.32;101608.66;5081587;28;20144;-70
2021/01/15 03:13:28;;;;;;;13.13;4.72;;;;;;;-6.32;81.16;101603.84;5066360;28;20028;-70
2021/01/15 03:16:00;;;;;;;7.13;4.00;;;;;;;-6.30;81.55;101616.59;5066195;28;20057;-70
2021/01/15 03:18:27;;;;;;;5.82;3.80;;;;;;;-6.42;81.57;101592.13;5066111;28;20028;-69
2021/01/15 03:20:53;;;;;;;13.15;4.72;;;;;;;-6.37;81.66;101612.69;5065921;28;20021;-71
2021/01/15 03:23:18;;;;;;;10.77;5.10;;;;;;;-6.45;81.72;101601.97;5066280;28;20013;-71
2021/01/15 03:25:44;;;;;;;6.93;2.95;;;;;;;-6.43;81.65;101607.16;5065953;28;20072;-70
2021/01/15 03:28:09;;;;;;;9.70;4.40;;;;;;;-6.44;81.93;101608.81;5066046;28;20025;-69
2021/01/15 03:30:35;;;;;;;12.05;4.93;;;;;;;-6.38;81.70;101616.88;5065961;28;20029;-70
2021/01/15 03:33:02;;;;;;;10.52;4.35;;;;;;;-6.38;81.72;101618.53;5065972;28;20088;-70
2021/01/15 03:35:29;;;;;;;8.40;4.57;;;;;;;-6.38;81.69;101621.94;5065744;28;20029;-70
2021/01/15 03:37:59;;;;;;;11.60;4.68;;;;;;;-6.41;81.52;101619.16;5064385;28;20031;-70
2021/01/15 03:40:27;;;;;;;11.90;4.90;;;;;;;-6.40;81.60;101612.44;5065746;28;20275;-70
2021/01/15 03:42:52;;;;;;;8.45;4.80;;;;;;;-6.62;81.32;101576.25;5065944;28;20028;-70
2021/01/15 03:45:18;;;;;;;13.57;5.53;;;;;;;-6.45;81.37;101619.66;5065765;28;20083;-70
2021/01/15 03:47:43;;;;;;;11.93;5.13;;;;;;;-6.43;81.68;101617.25;5065808;28;20024;-70
2021/01/15 03:50:10;;;;;;;9.45;4.57;;;;;;;-6.52;81.52;101608.22;5065622;28;20021;-70
2021/01/15 03:52:36;;;;;;;11.48;5.18;;;;;;;-6.50;81.24;101600.75;5065044;28;20021;-70
2021/01/15 03:55:02;;;;;;;9.65;4.68;;;;;;;-6.54;81.38;101604.66;5065469;28;20125;-69
2021/01/15 03:57:27;;;;;;;14.30;4.63;;;;;;;-6.57;81.57;101604.41;5080836;28;20029;-71
2021/01/15 03:59:52;;;;;;;12.13;4.70;;;;;;;-6.51;81.57;101604.00;5065218;28;20082;-70
2021/01/15 04:02:18;;;;;;;11.55;4.70;;;;;;;-6.53;81.59;101608.09;5080907;28;20115;-71
2021/01/15 04:04:48;;;;;;;12.75;5.05;;;;;;;-6.55;81.55;101607.94;5080584;28;20039;-71
2021/01/15 04:07:14;;;;;;;10.57;5.47;;;;;;;-6.62;81.57;101600.63;5064765;28;20425;-70
2021/01/15 04:09:39;;;;;;;10.02;4.95;;;;;;;-6.69;81.72;101590.81;5064776;28;20092;-69
2021/01/15 04:12:05;;;;;;;10.73;4.85;;;;;;;-6.66;81.53;101602.00;5063857;28;20029;-69
2021/01/15 04:14:30;;;;;;;13.25;4.85;;;;;;;-6.74;81.48;101598.88;5080189;28;20029;-70
2021/01/15 04:16:56;;;;;;;6.30;2.90;;;;;;;-6.72;81.69;101597.34;5064901;28;20021;-70
2021/01/15 04:19:21;;;;;;;8.32;4.80;;;;;;;-6.67;81.58;101609.47;5080006;28;20033;-69
2021/01/15 04:21:46;;;;;;;11.65;4.97;;;;;;;-6.76;81.86;101597.00;5064426;28;20033;-69
2021/01/15 04:24:12;;;;;;;10.68;4.35;;;;;;;-6.73;81.91;101613.28;5064832;28;20465;-70
2021/01/15 04:26:37;;;;;;;9.60;3.70;;;;;;;-6.71;81.76;101608.34;5079969;28;20290;-70
2021/01/15 04:29:02;;;;;;;11.20;4.95;;;;;;;-6.76;81.58;101602.94;5079719;28;20029;-70
2021/01/15 04:31:28;;;;;;;10.50;4.45;;;;;;;-6.76;81.74;101600.41;5064571;28;20407;-70
2021/01/15 04:33:53;;;;;;;10.00;3.92;;;;;;;-6.72;81.49;101609.09;5079848;28;20024;-72
2021/01/15 04:36:18;;;;;;;8.30;4.35;;;;;;;-6.74;81.79;101613.16;5063464;28;20033;-71
2021/01/15 04:38:47;;;;;;;10.35;4.10;;;;;;;-6.78;81.87;101604.44;5064432;28;20025;-70
2021/01/15 04:41:20;;;;;;;9.85;4.63;;;;;;;-6.79;81.92;101597.63;5063134;28;20032;-71
2021/01/15 04:43:54;;;;;;;11.30;4.85;;;;;;;-6.84;81.96;101591.31;5046325;28;20032;-70
2021/01/15 04:46:21;;;;;;;7.75;3.80;;;;;;;-6.90;81.84;101580.72;5064415;28;20058;-70
2021/01/15 04:48:49;;;;;;;7.75;4.28;;;;;;;-6.78;81.96;101606.97;5064161;28;20052;-70
2021/01/15 04:51:19;;;;;;;8.90;4.00;;;;;;;-6.66;81.81;101617.16;5064038;28;20090;-70
2021/01/15 04:54:04;;;;;;;9.05;3.70;;;;;;;-6.67;82.00;101619.56;5079527;28;20025;-70
2021/01/15 04:56:36;;;;;;;8.13;4.05;;;;;;;-6.73;82.11;101609.88;5063942;28;20044;-70
2021/01/15 04:59:03;;;;;;;6.07;4.20;;;;;;;-6.76;81.88;101613.03;5062495;28;20120;-70
2021/01/15 05:01:43;;;;;;;12.73;4.50;;;;;;;-6.73;82.12;101622.50;5064040;28;20024;-70
2021/01/15 05:04:12;;;;;;;6.18;3.05;;;;;;;-6.77;81.98;101623.00;5062586;28;20029;-70
2021/01/15 05:06:49;;;;;;;15.43;5.93;;;;;;;-6.89;82.10;101605.19;5078752;28;20021;-70
2021/01/15 05:09:20;;;;;;;7.72;3.67;;;;;;;-6.86;82.36;101613.91;5062306;28;20017;-70
2021/01/15 05:11:46;;;;;;;10.03;4.57;;;;;;;-6.82;82.15;101620.09;5063662;28;20089;-70
2021/01/15 05:14:14;;;;;;;7.85;3.55;;;;;;;-6.80;82.19;101615.16;5063740;28;20067;-71
2021/01/15 05:16:43;;;;;;;11.93;4.05;;;;;;;-6.81;82.09;101616.81;5063997;28;20153;-69
2021/01/15 05:19:09;;;;;;;6.88;3.75;;;;;;;-6.78;81.95;101618.69;5063892;28;20021;-69
2021/01/15 05:21:36;;;;;;;5.70;2.83;;;;;;;-6.88;81.96;101604.44;5063321;28;20090;-70
2021/01/15 05:24:03;;;;;;;11.27;4.60;;;;;;;-6.82;82.03;101609.13;5063585;28;20089;-70
2021/01/15 05:26:28;;;;;;;6.45;3.60;;;;;;;-6.92;81.83;101594.84;5063448;28;20028;-70
2021/01/15 05:28:54;;;;;;;9.20;4.55;;;;;;;-6.79;81.92;101620.38;5063541;28;20108;-70
2021/01/15 05:31:21;;;;;;;9.00;4.60;;;;;;;-6.85;81.82;101605.56;5062218;28;20025;-70
2021/01/15 05:34:15;;;;;;;8.43;4.15;;;;;;;-6.81;81.94;101619.34;5063747;28;20025;-73
2021/01/15 05:36:41;;;;;;;4.78;2.50;;;;;;;-6.80;82.13;101617.69;5048927;28;20028;-71
2021/01/15 05:39:08;;;;;;;9.10;4.05;;;;;;;-6.81;81.95;101616.81;5062041;28;20031;-70
2021/01/15 05:41:37;;;;;;;8.45;3.55;;;;;;;-6.82;81.72;101609.97;5078804;28;20029;-72
2021/01/15 05:44:03;;;;;;;8.02;4.07;;;;;;;-6.81;81.75;101610.88;5063314;28;20037;-70
2021/01/15 05:46:32;;;;;;;7.75;3.53;;;;;;;-6.83;81.86;101618.31;5063462;28;20024;-71
2021/01/15 05:49:08;;;;;;;8.90;3.63;;;;;;;-6.88;81.56;101612.00;5061845;28;20028;-68
2021/01/15 05:51:35;;;;;;;4.97;3.03;;;;;;;-7.00;81.77;101595.13;5062933;28;20031;-70
2021/01/15 05:54:03;;;;;;;11.48;4.60;;;;;;;-6.81;81.83;101631.97;5063271;28;20033;-71
2021/01/15 05:56:46;;;;;;;7.53;4.13;;;;;;;-6.88;81.78;101620.47;5062008;28;20056;-69
2021/01/15 05:59:18;;;;;;;11.52;4.53;;;;;;;-6.90;81.69;101606.84;5062972;28;20028;-68
2021/01/15 06:01:51;;;;;;;;;;;;;;;-6.83;81.67;101633.47;5063635;28;20043;-69
2021/01/15 06:04:33;;;;;;;8.57;3.83;;;;;;;-6.88;81.65;101628.06;5062068;28;19930;-68
2021/01/15 06:07:00;;;;;;;9.70;3.45;;;;;;;-6.90;81.59;101628.69;5062920;28;20028;-67
2021/01/15 06:09:25;;;;;;;12.25;5.53;;;;;;;-6.96;81.49;101621.47;5063169;28;20040;-68
2021/01/15 06:11:52;;;;;;;8.43;4.32;;;;;;;-6.98;81.67;101625.53;5063105;28;20029;-68
2021/01/15 06:14:27;;;;;;;7.63;4.05;;;;;;;-6.96;81.61;101626.53;5063184;28;20029;-68
2021/01/15 06:17:04;;;;;;;13.23;5.15;;;;;;;-6.93;81.71;101633.50;5062892;28;20029;-68
2021/01/15 06:19:50;;;;;;;11.55;4.90;;;;;;;-6.93;81.52;101641.06;5063000;28;20025;-69
2021/01/15 06:22:47;;;;;;;9.10;3.97;;;;;;;-6.95;81.43;101637.53;5062802;28;20119;-70
2021/01/15 06:25:19;;;;;;;7.55;3.95;;;;;;;-7.03;81.48;101632.75;5063699;28;20028;-69
2021/01/15 06:27:46;;;;;;;9.38;4.13;;;;;;;-7.02;81.53;101631.06;5063090;28;20055;-70
2021/01/15 06:30:25;;;;;;;7.20;3.60;;;;;;;-7.04;81.36;101638.53;5063278;28;20039;-70
2021/01/15 06:32:51;;;;;;;12.63;4.78;;;;;;;-7.04;81.70;101638.53;5063141;28;20036;-67
2021/01/15 06:35:31;;;;;;;6.63;3.55;;;;;;;-7.03;81.47;101631.84;5063228;28;20029;-72
2021/01/15 06:38:04;;;;;;;11.13;4.40;;;;;;;-7.06;81.59;101627.41;5063663;28;20016;-70
2021/01/15 06:40:41;;;;;;;8.60;3.97;;;;;;;-6.98;81.53;101638.16;5063435;28;20025;-72
2021/01/15 06:43:09;;;;;;;7.07;3.58;;;;;;;-6.96;81.58;101641.69;5061718;28;20029;-72
2021/01/15 06:45:49;;;;;;;8.05;4.88;;;;;;;-6.93;81.58;101643.59;5061548;28;20017;-74
2021/01/15 06:48:17;;;;;;;5.07;3.30;;;;;;;-6.92;81.29;101647.88;5063131;28;20029;-72
2021/01/15 06:50:45;;;;;;;9.02;4.45;;;;;;;-6.90;81.51;101637.13;5062511;28;20029;-73
2021/01/15 06:53:31;;;;;;;8.85;3.88;;;;;;;-6.95;81.52;101640.06;5078184;28;20021;-73
2021/01/15 06:56:03;;;;;;;7.88;3.28;;;;;;;-6.93;81.29;101651.16;5062764;28;20261;-74
2021/01/15 06:58:39;;;;;;;;;;;;;;;-6.93;81.26;101652.03;5063230;28;20052;-73
2021/01/15 07:01:20;;;;;;;6.32;2.97;;;;;;;-6.94;81.08;101649.38;5065121;28;19915;-73
2021/01/15 07:04:23;;;;;;;10.07;4.28;;;;;;;-6.94;80.99;101651.91;5081383;28;20043;-71
2021/01/15 07:07:01;;;;;;;12.27;3.80;;;;;;;-6.94;81.05;101655.31;5066088;28;20048;-70
2021/01/15 07:09:29;;;;;;;8.75;4.53;;;;;;;-6.93;81.06;101657.09;5066252;28;20021;-69
2021/01/15 07:11:56;;;;;;;8.27;4.22;;;;;;;-6.99;81.03;101647.38;5066354;28;20060;-72
2021/01/15 07:14:27;;;;;;;9.35;3.72;;;;;;;-7.06;81.11;101631.59;5064718;28;20036;-72
2021/01/15 07:16:55;;;;;;;9.98;5.28;;;;;;;-6.93;81.18;101641.94;5066474;28;20025;-72
2021/01/15 07:19:37;;;;;;;9.80;4.47;;;;;;;-6.89;80.89;101656.59;5065990;28;20418;-72
2021/01/15 07:22:02;;;;;;;7.18;3.50;;;;;;;-6.86;81.01;101659.38;5064853;28;20032;-71
2021/01/15 07:24:33;;;;;;;7.70;3.53;;;;;;;-6.88;80.98;101658.34;5066039;28;20021;-72
2021/01/15 07:26:59;;;;;;;8.32;4.28;;;;;;;-7.12;80.97;101624.38;5064813;28;20025;-71
2021/01/15 07:29:26;;;;;;;10.60;3.63;;;;;;;-6.88;81.07;101660.00;5065946;28;20029;-73
2021/01/15 07:32:20;;;;;;;11.05;5.25;;;;;;;-7.12;80.86;101614.28;5065884;28;20025;-72
2021/01/15 07:34:51;;;;;;;8.98;3.90;;;;;;;-7.23;81.00;101609.22;5081243;28;20025;-73
2021/01/15 07:37:21;;;;;;;7.07;3.55;;;;;;;-7.03;80.77;101655.47;5065396;28;20024;-72
2021/01/15 07:39:58;;;;;;;8.95;3.63;;;;;;;-6.92;80.81;101673.13;5065835;28;20029;-73
2021/01/15 07:42:45;;;;;;;8.52;4.22;;;;;;;-6.95;80.78;101670.34;5065904;28;20017;-71
2021/01/15 07:45:23;;;;;;;11.07;4.35;;;;;;;-6.97;80.89;101667.69;5066026;28;20082;-69
2021/01/15 07:47:50;;;;;;;11.45;4.50;;;;;;;-7.02;80.75;101669.84;5065863;28;20017;-70
2021/01/15 07:50:27;;;;;;;9.40;3.97;;;;;;;-7.03;81.00;101668.09;5065437;28;20037;-69
2021/01/15 07:53:39;;;;;;;9.55;4.15;;;;;;;-7.00;80.84;101675.91;5065318;28;20032;-69
2021/01/15 07:56:04;;;;;;;9.43;4.20;;;;;;;-7.03;80.69;101670.59;5063902;28;20045;-70
2021/01/15 07:58:37;;;;;;;7.28;3.53;;;;;;;-6.97;80.85;101670.22;5064001;28;20079;-71
2021/01/15 08:01:13;;;;;;;7.45;3.20;;;;;;;-6.94;80.70;101674.63;5065196;28;20032;-69
2021/01/15 08:03:46;;;;;;;6.95;3.67;;;;;;;-6.97;80.75;101681.22;5065323;28;20466;-70
2021/01/15 08:06:13;;;;;;;5.38;3.13;;;;;;;-6.96;80.57;101677.03;5080297;28;20032;-71
2021/01/15 08:09:01;;;;;;;11.85;4.53;;;;;;;-6.98;80.61;101684.47;5063940;28;20032;-70
2021/01/15 08:11:29;;;;;;;8.73;3.67;;;;;;;-7.02;80.63;101674.88;5064085;28;20574;-70
2021/01/15 08:14:20;;;;;;;8.35;4.25;;;;;;;-7.02;80.42;101684.09;5080800;28;20264;-70
2021/01/15 08:16:47;;;;;;;7.60;3.53;;;;;;;-6.99;80.46;101691.91;5065166;28;20260;-70
2021/01/15 08:19:16;;;;;;;8.55;2.72;;;;;;;-7.03;80.47;101680.72;5080325;28;20086;-70
2021/01/15 08:21:43;;;;;;;8.93;5.18;;;;;;;-6.94;80.78;101674.63;5063257;28;20013;-71
2021/01/15 08:24:09;;;;;;;10.30;5.13;;;;;;;-6.75;80.81;101693.09;5065229;28;20025;-70
2021/01/15 08:26:53;;;;;;;8.65;3.58;;;;;;;-6.68;80.36;101686.03;5080425;28;20028;-71
2021/01/15 08:29:21;;;;;;;8.98;4.65;;;;;;;-6.74;79.97;101692.31;5065061;28;20086;-69
2021/01/15 08:31:47;;;;;;;5.13;2.70;;;;;;;-6.72;80.11;101700.94;5063446;28;20021;-69
2021/01/15 08:34:17;;;;;;;8.77;4.00;;;;;;;-6.67;80.44;101695.34;5064798;28;20037;-69
2021/01/15 08:36:45;;;;;;;9.10;3.53;;;;;;;-6.55;80.08;101698.03;5079813;28;20053;-69
2021/01/15 08:39:12;;;;;;;8.50;4.25;;;;;;;-6.50;79.90;101702.69;5064618;28;20046;-69
2021/01/15 08:41:38;;;;;;;8.57;3.83;;;;;;;-6.41;80.14;101704.22;5080108;28;20021;-68
2021/01/15 08:44:04;;;;;;;13.02;4.82;;;;;;;-6.31;80.29;101709.22;5063390;28;20036;-68
2021/01/15 08:46:31;;;;;;;6.20;3.35;;;;;;;-6.06;80.61;101703.66;5064546;28;20024;-68
2021/01/15 08:48:58;;;;;;;10.70;4.25;;;;;;;-5.74;79.80;101709.47;5080039;28;20402;-68
2021/01/15 08:51:26;;;;;;;7.53;4.03;;;;;;;-5.58;79.06;101703.97;5064016;28;20028;-69
2021/01/15 08:54:06;;;;;;;15.45;5.32;;;;;;;-5.42;78.81;101690.88;5064478;28;20055;-68
2021/01/15 08:56:43;;;;;;;11.85;4.57;;;;;;;-5.26;78.63;101692.94;5064314;28;20124;-69
2021/01/15 08:59:13;;;;;;;12.90;4.38;;;;;;;-5.06;78.58;101696.09;5064301;28;20037;-69
2021/01/15 09:01:41;;;;;;;9.50;4.70;;;;;;;-4.67;78.51;101693.06;5062944;28;20013;-70
2021/01/15 09:04:08;;;;;;;10.88;4.15;;;;;;;-4.30;77.82;101693.25;5064440;28;20025;-69
2021/01/15 09:06:35;;;;;;;8.32;3.65;;;;;;;-3.82;77.24;101689.84;5063860;28;20032;-69
2021/01/15 09:09:04;;;;;;;11.13;4.95;;;;;;;-3.27;76.18;101695.34;5063001;28;20032;-69
2021/01/15 09:11:34;;;;;;;8.60;4.38;;;;;;;-2.75;75.19;101704.75;5064103;28;20056;-69
2021/01/15 09:14:00;;;;;;;7.65;3.88;;;;;;;-2.48;73.75;101701.41;5062826;28;20123;-70
2021/01/15 09:16:27;;;;;;;9.55;4.57;;;;;;;-2.27;73.40;101704.47;5064058;28;20098;-68
2021/01/15 09:18:56;;;;;;;5.82;3.47;;;;;;;-2.07;72.49;101701.47;5064423;28;20049;-69
2021/01/15 09:21:22;;;;;;;7.75;4.05;;;;;;;-1.77;72.42;101705.09;5063703;28;20047;-70
2021/01/15 09:23:49;;;;;;;10.32;4.63;;;;;;;-1.53;71.85;101694.69;5064125;28;20059;-70
2021/01/15 09:26:19;;;;;;;8.85;5.03;;;;;;;-1.19;71.50;101715.38;5079417;28;20029;-70
2021/01/15 09:28:45;;;;;;;9.55;4.70;;;;;;;-0.84;71.20;101715.72;5064095;28;20032;-71
2021/01/15 09:31:11;;;;;;;13.73;4.03;;;;;;;-0.63;71.05;101694.06;5063650;28;20495;-72
2021/01/15 09:33:46;;;;;;;8.95;3.92;;;;;;;-0.10;69.87;101715.72;5064111;28;20080;-74
2021/01/15 09:36:21;;;;;;;9.77;4.90;;;;;;;0.20;69.31;101702.88;5078705;28;20017;-76
2021/01/15 09:38:47;;;;;;;7.18;3.92;;;;;;;0.10;67.31;101699.84;5063940;28;20027;-73
2021/01/15 09:41:13;;;;;;;10.35;4.13;;;;;;;-0.01;68.06;101703.47;5063511;28;20028;-74
2021/01/15 09:43:40;;;;;;;6.97;3.92;;;;;;;-0.41;67.58;101691.84;5063755;28;20025;-72
2021/01/15 09:46:05;;;;;;;9.75;3.75;;;;;;;-0.73;67.64;101724.00;5062432;28;20024;-75
2021/01/15 09:48:30;;;;;;;8.20;4.57;;;;;;;-1.27;68.62;101715.78;5064000;28;20025;-74
2021/01/15 09:50:56;;;;;;;7.47;3.95;;;;;;;-1.42;69.78;101722.50;5063476;28;20033;-74
2021/01/15 09:53:21;;;;;;;7.63;3.78;;;;;;;-1.52;70.54;101677.72;5062373;28;20035;-74
2021/01/15 09:55:47;;;;;;;7.25;4.30;;;;;;;-1.00;70.19;101722.47;5062519;28;20131;-74
2021/01/15 09:58:12;;;;;;;8.60;3.95;;;;;;;-0.73;70.39;101693.41;5078427;28;20110;-74
2021/01/15 10:00:39;;;;;;;8.82;4.63;;;;;;;-0.07;69.83;101698.91;5062843;28;20074;-74
2021/01/15 10:03:05;;;;;;;8.70;4.88;;;;;;;0.40;69.23;101701.41;5063098;28;20036;-74
2021/01/15 10:05:30;;;;;;;7.38;4.90;;;;;;;1.05;68.93;101726.13;5078283;28;20024;-74
2021/01/15 10:07:56;;;;;;;11.05;3.92;;;;;;;1.53;67.22;101715.75;5063432;28;20520;-74
2021/01/15 10:10:21;;;;;;;7.80;4.25;;;;;;;1.78;66.67;101700.72;5064844;28;20029;-75
2021/01/15 10:12:46;;;;;;;10.52;4.40;;;;;;;2.32;65.05;101712.63;5064593;28;20025;-75
2021/01/15 10:15:13;;;;;;;6.13;3.90;;;;;;;2.23;64.23;101705.41;5062472;28;20603;-73
2021/01/15 10:17:45;;;;;;;8.00;4.25;;;;;;;2.27;64.96;101724.38;5064003;28;20032;-73
2021/01/15 10:20:11;;;;;;;11.25;4.47;;;;;;;2.51;65.83;101700.69;5063496;28;20025;-73
2021/01/15 10:22:37;;;;;;;6.85;4.20;;;;;;;2.94;65.35;101719.72;5063189;28;20032;-73
2021/01/15 10:25:03;;;;;;;6.18;3.80;;;;;;;3.15;64.72;101731.69;5062268;28;20029;-72
2021/01/15 10:27:28;;;;;;;9.20;4.18;;;;;;;3.22;64.12;101733.75;5078922;28;20082;-73
2021/01/15 10:29:54;;;;;;;7.40;4.65;;;;;;;2.72;63.47;101700.78;5063173;28;20052;-74
2021/01/15 10:32:19;;;;;;;8.18;4.22;;;;;;;2.45;63.07;101707.28;5063470;28;20027;-73
2021/01/15 10:34:44;;;;;;;6.22;4.18;;;;;;;1.81;62.36;101690.63;5065446;28;20013;-73
2021/01/15 10:37:10;;;;;;;8.32;3.83;;;;;;;0.87;63.84;101691.09;5067144;28;20552;-73
2021/01/15 10:39:35;;;;;;;6.63;4.15;;;;;;;0.26;66.48;101680.25;5067293;28;20025;-73
2021/01/15 10:42:01;;;;;;;7.82;3.88;;;;;;;0.03;66.93;101709.63;5082711;28;20017;-73
2021/01/15 10:44:29;;;;;;;7.28;4.35;;;;;;;-0.21;68.03;101725.31;5067166;28;20047;-73
2021/01/15 10:46:55;;;;;;;6.93;3.80;;;;;;;-0.50;68.32;101700.72;5082411;28;20025;-72
2021/01/15 10:49:22;;;;;;;11.98;4.35;;;;;;;-0.85;68.16;101703.78;5067303;28;20029;-72
2021/01/15 10:51:52;;;;;;;9.40;4.80;;;;;;;-1.27;68.31;101689.41;5066790;28;20025;-72
2021/01/15 10:54:17;;;;;;;9.40;5.95;;;;;;;-1.37;69.58;101731.28;5082416;28;20035;-72
2021/01/15 10:56:45;;;;;;;7.13;4.50;;;;;;;-1.70;70.29;101726.72;5066846;28;20052;-71
2021/01/15 10:59:11;;;;;;;8.57;4.90;;;;;;;-1.96;70.65;101722.50;5066984;28;20016;-72
2021/01/15 11:01:38;;;;;;;7.78;4.40;;;;;;;-2.11;71.03;101723.31;5066620;28;20024;-72
2021/01/15 11:04:08;;;;;;;8.25;4.13;;;;;;;-2.37;70.21;101736.09;5065488;28;20056;-72
2021/01/15 11:06:34;;;;;;;12.30;4.93;;;;;;;-2.51;71.73;101722.44;5066273;28;20033;-72
2021/01/15 11:09:00;;;;;;;6.60;4.30;;;;;;;-2.68;71.98;101716.22;5066606;28;20445;-73
2021/01/15 11:11:26;;;;;;;7.22;4.70;;;;;;;-2.60;71.84;101731.13;5066199;28;20036;-73
2021/01/15 11:13:51;;;;;;;8.23;4.28;;;;;;;-2.71;72.07;101722.75;5066555;28;20070;-73
2021/01/15 11:16:16;;;;;;;8.55;4.65;;;;;;;-2.87;71.86;101712.44;5066497;28;20052;-73
2021/01/15 11:18:42;;;;;;;11.75;5.15;;;;;;;-2.81;72.29;101729.75;5066141;28;20021;-73
2021/01/15 11:21:09;;;;;;;9.80;4.50;;;;;;;-2.78;72.71;101709.63;5065665;28;20097;-72
2021/01/15 11:23:35;;;;;;;12.18;5.90;;;;;;;-2.54;73.10;101701.88;5066298;28;20021;-73
2021/01/15 11:26:01;;;;;;;13.50;5.15;;;;;;;-2.00;71.67;101696.84;5066082;28;20032;-72
2021/01/15 11:28:27;;;;;;;9.20;5.20;;;;;;;-1.24;70.22;101699.81;5066027;28;20025;-72
2021/01/15 11:30:52;;;;;;;7.55;3.92;;;;;;;-0.45;67.40;101705.25;5065584;28;20029;-72
2021/01/15 11:33:19;;;;;;;10.48;4.68;;;;;;;-0.16;65.85;101694.13;5065622;28;20021;-72
2021/01/15 11:35:44;;;;;;;9.88;4.90;;;;;;;0.28;64.98;101709.31;5065748;28;20029;-71